createdAt,value
2023-03-11T00:00:07.516Z,2.47
2023-03-11T00:02:09.268Z,2.67
2023-03-11T00:04:13.823Z,2.33
2023-03-11T00:06:15.609Z,2.27
2023-03-11T00:08:19.822Z,2.33
2023-03-11T00:10:29.815Z,2.60
2023-03-11T00:12:31.902Z,2.57
2023-03-11T00:14:33.592Z,2.57
2023-03-11T00:16:35.364Z,2.30
2023-03-11T00:18:36.989Z,2.53
2023-03-11T00:20:45.014Z,2.13
2023-03-11T00:22:47.039Z,2.53
2023-03-11T00:24:49.889Z,2.70
2023-03-11T00:26:51.560Z,2.53
2023-03-11T00:28:55.446Z,3.03
2023-03-11T00:30:57.452Z,2.57
2023-03-11T00:33:00.250Z,2.70
2023-03-11T00:35:02.608Z,2.40
2023-03-11T00:37:04.447Z,2.80
2023-03-11T00:39:06.688Z,2.37
2023-03-11T00:41:08.422Z,2.40
2023-03-11T00:43:11.284Z,2.50
2023-03-11T00:45:13.931Z,2.50
2023-03-11T00:47:15.652Z,2.77
2023-03-11T00:49:19.603Z,2.70
2023-03-11T00:51:21.349Z,2.37
2023-03-11T00:53:23.255Z,2.33
2023-03-11T00:55:32.193Z,2.60
2023-03-11T00:57:35.474Z,2.40
2023-03-11T00:59:37.672Z,2.60
2023-03-11T01:01:41.557Z,2.50
2023-03-11T01:03:49.499Z,2.50
2023-03-11T01:05:52.585Z,2.67
2023-03-11T01:07:54.629Z,2.50
2023-03-11T01:09:56.370Z,2.60
2023-03-11T01:11:58.133Z,2.47
2023-03-11T01:14:04.272Z,2.50
2023-03-11T01:16:07.897Z,2.50
2023-03-11T01:18:09.843Z,3.40
2023-03-11T01:20:12.350Z,2.40
2023-03-11T01:22:14.153Z,2.80
2023-03-11T01:24:15.910Z,2.30
2023-03-11T01:26:20.096Z,2.47
2023-03-11T01:28:24.092Z,2.73
2023-03-11T01:30:28.717Z,2.43
2023-03-11T01:32:31.159Z,2.40
2023-03-11T01:34:35.710Z,2.70
2023-03-11T01:36:37.419Z,2.40
2023-03-11T01:38:39.589Z,2.47
2023-03-11T01:40:44.130Z,2.57
2023-03-11T01:42:49.480Z,2.40
2023-03-11T01:44:51.460Z,2.17
2023-03-11T01:46:53.199Z,2.90
2023-03-11T01:49:01.646Z,2.57
2023-03-11T01:51:08.352Z,2.47
2023-03-11T01:53:13.590Z,2.30
2023-03-11T01:55:18.574Z,2.53
2023-03-11T01:57:23.615Z,2.30
2023-03-11T01:59:33.176Z,2.60
2023-03-11T02:01:38.862Z,2.67
2023-03-11T02:03:42.408Z,2.50
2023-03-11T02:05:44.551Z,2.23
2023-03-11T02:07:47.008Z,2.90
2023-03-11T02:09:52.578Z,2.43
2023-03-11T02:11:55.272Z,2.43
2023-03-11T02:14:02.988Z,2.90
2023-03-11T02:16:07.770Z,2.47
2023-03-11T02:18:14.629Z,2.73
2023-03-11T02:20:39.044Z,2.67
2023-03-11T02:22:46.321Z,2.33
2023-03-11T02:25:07.766Z,2.90
2023-03-11T02:27:13.696Z,2.83
2023-03-11T02:29:16.043Z,2.73
2023-03-11T02:31:17.910Z,3.30
2023-03-11T02:33:20.115Z,2.80
2023-03-11T02:35:24.639Z,2.80
2023-03-11T02:37:31.005Z,2.97
2023-03-11T02:39:41.732Z,2.47
2023-03-11T02:41:47.682Z,3.00
2023-03-11T02:43:50.009Z,2.40
2023-03-11T02:45:52.413Z,2.70
2023-03-11T02:48:01.382Z,2.73
2023-03-11T02:50:05.801Z,2.60
2023-03-11T02:52:07.643Z,2.63
2023-03-11T02:54:09.353Z,2.70
2023-03-11T02:56:11.822Z,2.30
2023-03-11T02:58:13.749Z,2.67
2023-03-11T03:00:17.724Z,2.60
2023-03-11T03:02:26.923Z,3.13
2023-03-11T03:04:28.901Z,2.60
2023-03-11T03:06:31.832Z,2.63
2023-03-11T03:08:33.852Z,2.10
2023-03-11T03:10:35.588Z,2.73
2023-03-11T03:12:38.212Z,2.50
2023-03-11T03:14:39.950Z,2.40
2023-03-11T03:16:41.766Z,2.90
2023-03-11T03:18:43.663Z,2.73
2023-03-11T03:20:45.361Z,2.20
2023-03-11T03:22:51.961Z,2.63
2023-03-11T03:24:56.156Z,2.37
2023-03-11T03:26:57.912Z,2.43
2023-03-11T03:28:59.883Z,2.40
2023-03-11T03:31:06.386Z,2.67
2023-03-11T03:33:08.399Z,2.97
2023-03-11T03:35:10.352Z,2.87
2023-03-11T03:37:29.025Z,2.73
2023-03-11T03:39:33.444Z,2.20
2023-03-11T03:41:35.287Z,3.00
2023-03-11T03:43:37.888Z,2.67
2023-03-11T03:45:39.718Z,2.50
2023-03-11T03:47:41.491Z,2.50
2023-03-11T03:49:43.267Z,2.90
2023-03-11T03:51:45.030Z,2.67
2023-03-11T03:54:07.021Z,2.80
2023-03-11T03:56:14.611Z,2.70
2023-03-11T03:58:16.420Z,2.70
2023-03-11T04:00:19.514Z,2.90
2023-03-11T04:02:28.171Z,2.70
2023-03-11T04:04:33.539Z,2.87
2023-03-11T04:06:38.195Z,2.47
2023-03-11T04:08:42.304Z,2.50
2023-03-11T04:10:55.768Z,2.97
2023-03-11T04:12:59.745Z,2.40
2023-03-11T04:15:01.467Z,2.90
2023-03-11T04:17:06.250Z,2.67
2023-03-11T04:19:08.921Z,2.80
2023-03-11T04:21:10.957Z,2.60
2023-03-11T04:23:13.874Z,2.50
2023-03-11T04:25:15.843Z,2.90
2023-03-11T04:27:17.536Z,2.90
2023-03-11T04:29:19.854Z,2.70
2023-03-11T04:31:25.104Z,2.63
2023-03-11T04:33:29.169Z,3.43
2023-03-11T04:35:30.961Z,2.80
2023-03-11T04:37:33.705Z,3.27
2023-03-11T04:39:35.961Z,3.23
2023-03-11T04:41:37.769Z,2.47
2023-03-11T04:43:40.928Z,2.70
2023-03-11T04:45:42.773Z,3.23
2023-03-11T04:47:51.891Z,3.10
2023-03-11T04:49:56.033Z,3.17
2023-03-11T04:52:00.154Z,3.10
2023-03-11T04:54:01.976Z,3.10
2023-03-11T04:56:05.208Z,3.00
2023-03-11T04:58:07.145Z,2.87
2023-03-11T05:00:13.559Z,3.13
2023-03-11T05:02:17.879Z,3.37
2023-03-11T05:04:27.445Z,3.03
2023-03-11T05:06:30.282Z,3.20
2023-03-11T05:08:34.248Z,2.87
2023-03-11T05:10:36.709Z,3.27
2023-03-11T05:12:43.926Z,2.90
2023-03-11T05:14:45.701Z,2.83
2023-03-11T05:16:47.449Z,3.10
2023-03-11T05:18:49.470Z,3.00
2023-03-11T05:20:55.546Z,2.90
2023-03-11T05:23:00.514Z,3.07
2023-03-11T05:25:05.475Z,2.73
2023-03-11T05:27:07.745Z,3.30
2023-03-11T05:29:11.093Z,3.60
2023-03-11T05:31:12.937Z,3.50
2023-03-11T05:33:18.860Z,3.70
2023-03-11T05:35:23.819Z,3.57
2023-03-11T05:37:25.631Z,3.00
2023-03-11T05:39:28.443Z,3.60
2023-03-11T05:41:30.505Z,3.07
2023-03-11T05:43:32.367Z,3.30
2023-03-11T05:45:34.215Z,3.40
2023-03-11T05:47:37.075Z,3.40
2023-03-11T05:49:39.461Z,3.40
2023-03-11T05:51:41.660Z,3.37
2023-03-11T05:53:48.748Z,3.17
2023-03-11T05:55:57.405Z,3.07
2023-03-11T05:58:00.614Z,3.23
2023-03-11T06:00:05.916Z,3.17
2023-03-11T06:02:15.439Z,3.43
2023-03-11T06:04:17.625Z,3.00
2023-03-11T06:06:20.402Z,2.90
2023-03-11T06:08:22.264Z,3.50
2023-03-11T06:10:24.291Z,3.17
2023-03-11T06:12:27.348Z,3.23
2023-03-11T06:14:55.380Z,3.37
2023-03-11T06:16:58.897Z,3.33
2023-03-11T06:19:00.926Z,3.27
2023-03-11T06:21:07.229Z,3.67
2023-03-11T06:23:09.011Z,3.17
2023-03-11T06:25:13.367Z,2.87
2023-03-11T06:27:16.635Z,3.13
2023-03-11T06:29:18.758Z,3.13
2023-03-11T06:31:26.981Z,3.50
2023-03-11T06:33:32.439Z,3.70
2023-03-11T06:35:34.328Z,4.03
2023-03-11T06:37:37.354Z,3.97
2023-03-11T06:39:41.472Z,4.27
2023-03-11T06:41:45.898Z,3.83
2023-03-11T06:43:48.663Z,3.77
2023-03-11T06:45:50.646Z,3.70
2023-03-11T06:47:52.719Z,3.77
2023-03-11T06:49:55.680Z,3.80
2023-03-11T06:51:57.585Z,3.87
2023-03-11T06:53:59.394Z,3.37
2023-03-11T06:56:05.273Z,3.70
2023-03-11T06:58:11.323Z,3.40
2023-03-11T07:00:13.935Z,3.70
2023-03-11T07:02:19.301Z,4.10
2023-03-11T07:04:21.564Z,3.70
2023-03-11T07:06:27.547Z,4.23
2023-03-11T07:08:36.929Z,3.73
2023-03-11T07:10:38.929Z,4.13
2023-03-11T07:12:40.912Z,3.73
2023-03-11T07:14:44.591Z,3.70
2023-03-11T07:16:48.728Z,3.90
2023-03-11T07:19:22.586Z,3.83
2023-03-11T07:21:24.802Z,4.67
2023-03-11T07:23:26.705Z,3.47
2023-03-11T07:25:28.451Z,4.33
2023-03-11T07:27:30.237Z,4.20
2023-03-11T07:29:33.234Z,4.27
2023-03-11T07:31:35.702Z,4.20
2023-03-11T07:33:38.322Z,3.90
2023-03-11T07:35:42.365Z,4.70
2023-03-11T07:37:44.154Z,4.70
2023-03-11T07:39:46.750Z,4.63
2023-03-11T07:41:49.795Z,3.97
2023-03-11T07:43:54.816Z,4.13
2023-03-11T07:46:18.416Z,4.20
2023-03-11T07:48:20.671Z,4.37
2023-03-11T07:50:24.591Z,4.63
2023-03-11T07:52:29.336Z,4.63
2023-03-11T07:54:30.999Z,4.70
2023-03-11T07:56:34.829Z,4.77
2023-03-11T07:58:37.111Z,4.90
2023-03-11T08:00:38.818Z,4.67
2023-03-11T08:02:40.601Z,4.87
2023-03-11T08:04:42.322Z,5.23
2023-03-11T08:06:47.595Z,5.10
2023-03-11T08:08:52.659Z,4.90
2023-03-11T08:10:54.930Z,4.90
2023-03-11T08:12:56.650Z,5.33
2023-03-11T08:14:58.373Z,4.50
2023-03-11T08:17:00.109Z,4.73
2023-03-11T08:19:01.946Z,4.80
2023-03-11T08:21:18.791Z,4.67
2023-03-11T08:23:21.560Z,4.87
2023-03-11T08:25:23.293Z,4.23
2023-03-11T08:27:24.967Z,4.00
2023-03-11T08:29:26.599Z,4.47
2023-03-11T08:31:30.969Z,4.30
2023-03-11T08:33:32.952Z,5.10
2023-03-11T08:35:34.772Z,4.30
2023-03-11T08:37:36.573Z,5.13
2023-03-11T08:39:40.131Z,4.80
2023-03-11T08:41:41.913Z,4.27
2023-03-11T08:43:53.773Z,4.70
2023-03-11T08:45:55.578Z,4.20
2023-03-11T08:47:57.388Z,4.33
2023-03-11T08:50:01.607Z,3.97
2023-03-11T08:52:03.827Z,4.60
2023-03-11T08:54:05.986Z,4.27
2023-03-11T08:56:08.075Z,3.97
2023-03-11T08:58:12.549Z,3.73
2023-03-11T09:00:18.689Z,3.77
2023-03-11T09:02:20.379Z,3.20
2023-03-11T09:04:22.152Z,3.30
2023-03-11T09:06:24.487Z,3.20
2023-03-11T09:08:26.657Z,3.20
2023-03-11T09:10:28.425Z,2.80
2023-03-11T09:12:30.505Z,2.80
2023-03-11T09:14:32.242Z,3.00
2023-03-11T09:16:36.515Z,3.30
2023-03-11T09:18:38.448Z,3.10
2023-03-11T09:20:41.371Z,2.63
2023-03-11T09:22:43.155Z,2.83
2023-03-11T09:24:44.835Z,2.87
2023-03-11T09:26:46.507Z,2.70
2023-03-11T09:28:49.617Z,2.80
2023-03-11T09:30:51.372Z,2.60
2023-03-11T09:32:55.520Z,2.80
2023-03-11T09:34:57.814Z,2.33
2023-03-11T09:37:01.469Z,2.70
2023-03-11T09:39:05.562Z,2.50
2023-03-11T09:41:20.663Z,2.17
2023-03-11T09:43:44.788Z,2.20
2023-03-11T09:45:55.171Z,2.20
2023-03-11T09:48:23.654Z,2.10
2023-03-11T09:50:37.904Z,2.40
2023-03-11T09:52:51.936Z,2.50
2023-03-11T09:54:55.557Z,2.63
2023-03-11T09:56:57.500Z,2.43
2023-03-11T09:59:07.497Z,2.60
2023-03-11T10:01:14.604Z,2.20
2023-03-11T10:03:32.582Z,2.53
2023-03-11T10:05:35.430Z,2.30
2023-03-11T10:07:41.474Z,2.43
2023-03-11T10:09:48.799Z,2.20
2023-03-11T10:12:08.428Z,2.60
2023-03-11T10:14:16.343Z,2.30
2023-03-11T10:16:45.359Z,2.30
2023-03-11T10:18:52.675Z,2.80
2023-03-11T10:21:11.844Z,2.50
2023-03-11T10:23:35.471Z,2.20
2023-03-11T10:25:42.912Z,2.20
2023-03-11T10:27:53.021Z,2.17
2023-03-11T10:30:04.736Z,2.03
2023-03-11T10:32:19.360Z,2.27
2023-03-11T10:34:38.441Z,2.00
2023-03-11T10:37:03.678Z,2.00
2023-03-11T10:39:13.011Z,2.30
2023-03-11T10:41:44.492Z,2.10
2023-03-11T10:43:57.945Z,1.90
2023-03-11T10:45:59.884Z,2.00
2023-03-11T10:48:01.698Z,2.07
2023-03-11T10:50:03.475Z,2.17
2023-03-11T10:52:05.499Z,2.20
2023-03-11T10:54:07.423Z,2.20
2023-03-11T10:56:29.433Z,2.20
2023-03-11T10:58:31.444Z,2.40
2023-03-11T11:00:33.491Z,2.37
2023-03-11T11:02:50.992Z,2.43
2023-03-11T11:05:25.013Z,2.13
2023-03-11T11:07:30.872Z,2.17
2023-03-11T11:09:32.788Z,1.90
2023-03-11T11:11:36.565Z,2.13
2023-03-11T11:13:38.441Z,2.43
2023-03-11T11:15:54.925Z,2.13
2023-03-11T11:18:21.205Z,2.40
2023-03-11T11:20:24.152Z,2.33
2023-03-11T11:22:26.625Z,2.30
2023-03-11T11:24:29.795Z,2.30
2023-03-11T11:26:33.858Z,2.30
2023-03-11T11:28:35.982Z,2.30
2023-03-11T11:30:38.110Z,2.27
2023-03-11T11:32:39.929Z,2.40
2023-03-11T11:34:42.008Z,2.10
2023-03-11T11:36:44.855Z,2.10
2023-03-11T11:38:46.804Z,2.27
2023-03-11T11:40:53.536Z,2.20
2023-03-11T11:43:03.522Z,2.30
2023-03-11T11:45:22.752Z,1.90
2023-03-11T11:47:30.052Z,2.70
2023-03-11T11:49:34.498Z,2.10
2023-03-11T11:51:41.585Z,2.10
2023-03-11T11:53:49.818Z,2.07
2023-03-11T11:55:54.841Z,2.30
2023-03-11T11:57:58.880Z,2.30
2023-03-11T12:00:05.151Z,2.10
2023-03-11T12:02:32.001Z,2.10
2023-03-11T12:04:59.848Z,2.00
2023-03-11T12:07:25.819Z,2.10
2023-03-11T12:09:37.789Z,2.27
2023-03-11T12:11:50.340Z,2.20
2023-03-11T12:14:06.228Z,2.10
2023-03-11T12:16:23.452Z,2.30
2023-03-11T12:18:50.923Z,2.30
2023-03-11T12:20:56.009Z,2.33
2023-03-11T12:23:07.190Z,2.20
2023-03-11T12:25:29.979Z,2.40
2023-03-11T12:27:53.446Z,2.30
2023-03-11T12:29:58.774Z,2.27
2023-03-11T12:32:02.470Z,2.30
2023-03-11T12:34:17.456Z,2.20
2023-03-11T12:36:32.174Z,2.20
2023-03-11T12:38:41.413Z,2.27
2023-03-11T12:40:45.315Z,2.10
2023-03-11T12:42:47.059Z,2.20
2023-03-11T12:44:51.713Z,1.90
2023-03-11T12:46:59.456Z,1.80
2023-03-11T12:49:14.902Z,1.90
2023-03-11T12:51:34.783Z,1.90
2023-03-11T12:53:50.613Z,2.20
2023-03-11T12:56:19.379Z,2.33
2023-03-11T12:58:43.829Z,2.20
2023-03-11T13:01:11.325Z,2.10
2023-03-11T13:03:29.499Z,2.33
2023-03-11T13:06:10.158Z,2.07
2023-03-11T13:08:19.338Z,1.87
2023-03-11T13:10:30.012Z,2.17
2023-03-11T13:12:45.703Z,2.00
2023-03-11T13:14:47.669Z,1.70
2023-03-11T13:16:50.110Z,2.20
2023-03-11T13:18:51.913Z,1.93
2023-03-11T13:21:01.042Z,2.00
2023-03-11T13:23:04.075Z,2.17
2023-03-11T13:25:32.802Z,1.80
2023-03-11T13:27:46.790Z,2.20
2023-03-11T13:30:06.616Z,1.60
2023-03-11T13:32:32.555Z,1.77
2023-03-11T13:35:19.185Z,1.77
2023-03-11T13:38:10.661Z,2.10
2023-03-11T13:40:28.560Z,1.70
2023-03-11T13:42:59.227Z,1.73
2023-03-11T13:45:04.867Z,2.27
2023-03-11T13:47:17.302Z,2.03
2023-03-11T13:49:43.793Z,1.87
2023-03-11T13:51:48.927Z,2.07
2023-03-11T13:54:26.080Z,1.83
2023-03-11T13:56:32.971Z,1.80
2023-03-11T13:58:37.102Z,1.83
2023-03-11T14:00:48.852Z,2.13
2023-03-11T14:02:55.075Z,1.97
2023-03-11T14:05:16.231Z,1.77
2023-03-11T14:07:31.699Z,2.03
2023-03-11T14:09:33.755Z,2.10
2023-03-11T14:11:35.526Z,2.30
2023-03-11T14:13:42.286Z,2.03
2023-03-11T14:16:02.336Z,1.80
2023-03-11T14:18:28.121Z,1.70
2023-03-11T14:20:29.923Z,1.60
2023-03-11T14:22:33.319Z,1.97
2023-03-11T14:24:36.273Z,1.80
2023-03-11T14:26:43.502Z,1.70
2023-03-11T14:28:52.018Z,2.00
2023-03-11T14:30:59.755Z,2.20
2023-03-11T14:33:18.255Z,1.70
2023-03-11T14:35:20.980Z,1.97
2023-03-11T14:37:41.328Z,1.90
2023-03-11T14:39:46.260Z,1.83
2023-03-11T14:41:48.714Z,1.73
2023-03-11T14:43:52.754Z,2.03
2023-03-11T14:45:55.126Z,1.83
2023-03-11T14:48:09.543Z,1.90
2023-03-11T14:50:18.358Z,1.83
2023-03-11T14:52:35.382Z,1.90
2023-03-11T14:54:38.388Z,1.67
2023-03-11T14:56:43.716Z,1.67
2023-03-11T14:59:06.448Z,1.83
2023-03-11T15:01:21.346Z,2.10
2023-03-11T15:03:32.240Z,1.80
2023-03-11T15:05:43.727Z,1.80
2023-03-11T15:07:46.843Z,1.73
2023-03-11T15:09:48.903Z,1.90
2023-03-11T15:11:55.047Z,2.00
2023-03-11T15:14:17.446Z,1.80
2023-03-11T15:16:35.024Z,1.83
2023-03-11T15:18:37.955Z,1.80
2023-03-11T15:20:39.824Z,1.83
2023-03-11T15:22:41.632Z,1.90
2023-03-11T15:24:51.282Z,1.87
2023-03-11T15:27:07.749Z,1.87
2023-03-11T15:29:19.172Z,1.80
2023-03-11T15:31:20.766Z,1.80
2023-03-11T15:33:33.291Z,1.90
2023-03-11T15:35:47.152Z,2.30
2023-03-11T15:37:51.662Z,1.70
2023-03-11T15:40:12.177Z,1.70
2023-03-11T15:42:18.774Z,2.00
2023-03-11T15:44:22.897Z,2.10
2023-03-11T15:46:24.667Z,1.70
2023-03-11T15:48:28.876Z,1.60
2023-03-11T15:50:46.637Z,1.90
2023-03-11T15:52:54.698Z,1.73
2023-03-11T15:54:58.497Z,1.93
2023-03-11T15:57:02.410Z,1.87
2023-03-11T15:59:04.159Z,1.70
2023-03-11T16:01:09.089Z,1.90
2023-03-11T16:03:10.910Z,1.93
2023-03-11T16:05:20.804Z,1.77
2023-03-11T16:07:38.114Z,1.73
2023-03-11T16:09:41.171Z,1.80
2023-03-11T16:11:44.103Z,2.00
2023-03-11T16:13:48.145Z,1.60
2023-03-11T16:15:49.850Z,2.20
2023-03-11T16:17:53.014Z,2.00
2023-03-11T16:19:54.712Z,1.80
2023-03-11T16:21:56.460Z,1.83
2023-03-11T16:23:58.162Z,1.90
2023-03-11T16:26:02.649Z,1.90
2023-03-11T16:28:07.650Z,2.10
2023-03-11T16:30:15.956Z,1.83
2023-03-11T16:32:17.826Z,1.80
2023-03-11T16:34:19.617Z,2.10
2023-03-11T16:36:21.465Z,1.70
2023-03-11T16:38:23.249Z,1.80
2023-03-11T16:40:27.563Z,2.00
2023-03-11T16:42:30.018Z,1.70
2023-03-11T16:44:31.841Z,1.93
2023-03-11T16:46:33.643Z,2.37
2023-03-11T16:48:35.353Z,1.90
2023-03-11T16:50:37.771Z,2.30
2023-03-11T16:52:39.697Z,1.70
2023-03-11T16:54:43.916Z,1.80
2023-03-11T16:56:45.702Z,2.20
2023-03-11T16:58:49.227Z,2.00
2023-03-11T17:00:53.011Z,1.80
2023-03-11T17:02:54.813Z,1.90
2023-03-11T17:04:57.806Z,2.10
2023-03-11T17:06:59.532Z,1.83
2023-03-11T17:09:01.296Z,2.00
2023-03-11T17:11:06.552Z,2.03
2023-03-11T17:13:11.484Z,2.30
2023-03-11T17:15:13.283Z,2.73
2023-03-11T17:17:14.916Z,2.97
2023-03-11T17:19:16.794Z,2.20
2023-03-11T17:21:18.679Z,2.70
2023-03-11T17:23:20.817Z,2.43
2023-03-11T17:25:22.646Z,2.60
2023-03-11T17:27:24.287Z,2.47
2023-03-11T17:29:28.405Z,2.30
2023-03-11T17:31:30.197Z,2.23
2023-03-11T17:33:31.913Z,2.30
2023-03-11T17:35:33.822Z,2.23
2023-03-11T17:37:38.116Z,2.13
2023-03-11T17:39:41.117Z,2.37
2023-03-11T17:41:43.812Z,1.90
2023-03-11T17:43:46.111Z,1.93
2023-03-11T17:45:48.362Z,1.90
2023-03-11T17:47:50.106Z,2.10
2023-03-11T17:49:52.462Z,2.10
2023-03-11T17:51:54.154Z,2.80
2023-03-11T17:53:57.262Z,2.40
2023-03-11T17:55:59.498Z,2.43
2023-03-11T17:58:01.326Z,3.30
2023-03-11T18:00:05.759Z,3.10
2023-03-11T18:02:08.237Z,3.10
2023-03-11T18:04:10.165Z,2.83
2023-03-11T18:06:13.755Z,2.50
2023-03-11T18:08:15.434Z,2.57
2023-03-11T18:10:17.289Z,2.67
2023-03-11T18:12:20.316Z,2.23
2023-03-11T18:14:22.376Z,2.30
2023-03-11T18:16:28.452Z,2.40
2023-03-11T18:18:32.934Z,2.60
2023-03-11T18:20:37.085Z,2.60
2023-03-11T18:22:44.474Z,2.60
2023-03-11T18:24:47.698Z,2.20
2023-03-11T18:26:49.516Z,2.20
2023-03-11T18:28:59.561Z,2.00
2023-03-11T18:31:11.305Z,2.20
2023-03-11T18:33:13.159Z,2.20
2023-03-11T18:35:17.375Z,2.10
2023-03-11T18:37:19.085Z,2.10
2023-03-11T18:39:23.155Z,2.03
2023-03-11T18:41:27.185Z,1.93
2023-03-11T18:43:28.890Z,2.17
2023-03-11T18:45:30.808Z,2.30
2023-03-11T18:47:35.708Z,2.20
2023-03-11T18:49:37.472Z,2.20
2023-03-11T18:51:39.825Z,2.00
2023-03-11T18:53:42.949Z,2.00
2023-03-11T18:55:44.800Z,2.17
2023-03-11T18:57:46.996Z,1.87
2023-03-11T18:59:50.878Z,2.50
2023-03-11T19:01:55.324Z,1.80
2023-03-11T19:03:58.760Z,2.37
2023-03-11T19:06:00.672Z,2.00
2023-03-11T19:08:04.769Z,1.97
2023-03-11T19:10:06.705Z,2.23
2023-03-11T19:12:08.474Z,2.53
2023-03-11T19:14:11.422Z,2.27
2023-03-11T19:16:16.357Z,1.90
2023-03-11T19:18:18.154Z,2.10
2023-03-11T19:20:19.996Z,2.20
2023-03-11T19:22:21.685Z,2.00
2023-03-11T19:24:23.571Z,2.17
2023-03-11T19:26:43.237Z,2.30
2023-03-11T19:28:49.108Z,2.80
2023-03-11T19:30:57.068Z,2.30
2023-03-11T19:32:58.776Z,2.57
2023-03-11T19:35:00.456Z,2.30
2023-03-11T19:37:02.137Z,2.57
2023-03-11T19:39:04.019Z,3.80
2023-03-11T19:41:08.273Z,5.10
2023-03-11T19:43:13.711Z,5.47
2023-03-11T19:45:15.584Z,5.37
2023-03-11T19:47:17.316Z,5.00
2023-03-11T19:49:19.151Z,4.77
2023-03-11T19:51:20.915Z,4.87
2023-03-11T19:53:24.142Z,4.00
2023-03-11T19:55:27.754Z,3.70
2023-03-11T19:57:31.966Z,3.63
2023-03-11T19:59:33.761Z,4.33
2023-03-11T20:01:36.360Z,3.57
2023-03-11T20:03:38.070Z,3.80
2023-03-11T20:05:42.881Z,3.13
2023-03-11T20:07:46.705Z,3.10
2023-03-11T20:09:48.701Z,2.93
2023-03-11T20:11:50.789Z,2.97
2023-03-11T20:13:52.474Z,2.70
2023-03-11T20:15:54.347Z,3.03
2023-03-11T20:17:56.646Z,2.93
2023-03-11T20:19:58.497Z,2.70
2023-03-11T20:22:02.322Z,3.23
2023-03-11T20:24:04.199Z,2.90
2023-03-11T20:26:13.878Z,3.97
2023-03-11T20:28:15.941Z,3.03
2023-03-11T20:30:21.115Z,3.43
2023-03-11T20:32:23.126Z,2.90
2023-03-11T20:34:27.118Z,2.67
2023-03-11T20:36:33.074Z,3.57
2023-03-11T20:38:35.614Z,2.60
2023-03-11T20:40:40.284Z,2.50
2023-03-11T20:42:43.297Z,3.10
2023-03-11T20:44:45.164Z,3.10
2023-03-11T20:46:47.138Z,3.03
2023-03-11T20:48:49.440Z,3.17
2023-03-11T20:50:51.286Z,3.30
2023-03-11T20:52:52.989Z,3.20
2023-03-11T20:54:54.680Z,3.30
2023-03-11T20:56:56.504Z,3.20
2023-03-11T20:58:59.166Z,3.40
2023-03-11T21:01:01.677Z,3.50
2023-03-11T21:03:03.556Z,3.40
2023-03-11T21:05:07.103Z,3.53
2023-03-11T21:07:08.848Z,3.47
2023-03-11T21:09:17.219Z,3.03
2023-03-11T21:11:19.073Z,3.37
2023-03-11T21:13:20.855Z,3.70
2023-03-11T21:15:22.641Z,3.50
2023-03-11T21:17:26.506Z,3.70
2023-03-11T21:19:28.333Z,3.40
2023-03-11T21:21:35.558Z,3.00
2023-03-11T21:23:38.779Z,3.20
2023-03-11T21:25:42.641Z,3.50
2023-03-11T21:27:44.322Z,3.37
2023-03-11T21:29:46.186Z,3.20
2023-03-11T21:31:47.948Z,3.93
2023-03-11T21:33:56.396Z,2.97
2023-03-11T21:35:59.998Z,3.37
2023-03-11T21:38:01.793Z,3.07
2023-03-11T21:40:07.448Z,3.47
2023-03-11T21:42:09.248Z,3.00
2023-03-11T21:44:11.131Z,3.57
2023-03-11T21:46:16.013Z,3.27
2023-03-11T21:48:17.904Z,2.90
2023-03-11T21:50:22.273Z,3.53
2023-03-11T21:52:23.960Z,3.37
2023-03-11T21:54:28.200Z,3.63
2023-03-11T21:56:32.221Z,3.03
2023-03-11T21:58:34.417Z,2.83
2023-03-11T22:00:36.127Z,3.20
2023-03-11T22:02:37.879Z,3.03
2023-03-11T22:04:39.650Z,2.90
2023-03-11T22:06:41.546Z,3.27
2023-03-11T22:08:43.433Z,3.40
2023-03-11T22:10:45.256Z,2.83
2023-03-11T22:12:47.262Z,2.73
2023-03-11T22:14:49.519Z,2.80
2023-03-11T22:16:52.264Z,2.73
2023-03-11T22:18:54.033Z,2.90
2023-03-11T22:20:58.393Z,2.93
2023-03-11T22:23:02.133Z,3.20
2023-03-11T22:25:05.232Z,2.83
2023-03-11T22:27:06.918Z,3.20
2023-03-11T22:29:09.051Z,3.10
2023-03-11T22:31:14.093Z,3.10
2023-03-11T22:33:16.116Z,3.23
2023-03-11T22:35:18.401Z,3.13
2023-03-11T22:37:20.080Z,3.50
2023-03-11T22:39:21.824Z,3.23
2023-03-11T22:41:24.051Z,3.20
2023-03-11T22:43:27.825Z,3.40
2023-03-11T22:45:29.491Z,3.17
2023-03-11T22:47:33.756Z,3.77
2023-03-11T22:49:35.483Z,3.20
2023-03-11T22:51:39.419Z,3.30
2023-03-11T22:53:41.249Z,3.60
2023-03-11T22:55:44.821Z,3.30
2023-03-11T22:57:46.667Z,3.40
2023-03-11T22:59:49.764Z,3.50
2023-03-11T23:01:51.691Z,3.30
2023-03-11T23:03:54.243Z,3.67
2023-03-11T23:06:02.072Z,3.13
2023-03-11T23:08:03.916Z,3.40
2023-03-11T23:10:07.451Z,3.40
2023-03-11T23:12:09.174Z,3.43
2023-03-11T23:14:10.857Z,3.17
2023-03-11T23:16:15.719Z,3.17
2023-03-11T23:18:18.744Z,3.43
2023-03-11T23:20:20.539Z,3.33
2023-03-11T23:22:22.275Z,3.43
2023-03-11T23:24:26.457Z,3.10
2023-03-11T23:26:29.676Z,3.60
2023-03-11T23:28:31.337Z,3.50
2023-03-11T23:30:40.082Z,3.30
2023-03-11T23:32:42.094Z,3.53
2023-03-11T23:34:47.694Z,4.07
2023-03-11T23:36:49.445Z,4.10
2023-03-11T23:38:51.146Z,4.60
2023-03-11T23:40:52.803Z,3.40
2023-03-11T23:42:54.621Z,3.57
2023-03-11T23:44:56.310Z,3.67
2023-03-11T23:47:00.683Z,3.40
2023-03-11T23:49:02.482Z,3.50
2023-03-11T23:51:04.817Z,3.93
2023-03-11T23:53:13.668Z,3.37
2023-03-11T23:55:17.271Z,3.53
2023-03-11T23:57:18.989Z,3.30
2023-03-11T23:59:23.000Z,3.47
